Time,TemperatureF,DewpointF,PressureIn,WindDirection,WindDirectionDegrees,WindSpeedMPH,WindSpeedGustMPH,Humidity,HourlyPrecipIn,Conditions,Clouds,dailyrainin,SoftwareType,DateUTC
2013-02-07 00:01:00,23.7,18.7,30.36,West,278,0.0,0.0,81,0.00,,,0.01,Wunderground v.1.15,2013-02-07 05:01:00,
2013-02-07 00:02:00,23.8,18.8,30.36,West,278,0.0,0.0,81,0.00,,,0.00,Wunderground v.1.15,2013-02-07 05:02:00,
2013-02-07 00:07:00,24.3,19.0,30.36,West,278,0.0,0.0,80,0.00,,,0.00,Wunderground v.1.15,2013-02-07 05:07:00,
2013-02-07 00:14:00,24.2,18.9,30.36,West,278,0.0,0.0,80,0.00,,,0.00,Wunderground v.1.15,2013-02-07 05:14:00,
2013-02-07 00:18:00,24.2,18.9,30.36,West,278,0.0,0.0,80,0.00,,,0.00,Wunderground v.1.15,2013-02-07 05:18:00,
2013-02-07 00:24:00,24.3,19.0,30.35,West,278,0.0,0.0,80,0.00,,,0.00,Wunderground v.1.15,2013-02-07 05:24:00,
2013-02-07 00:29:00,24.4,19.1,30.35,West,279,0.0,0.0,80,0.00,,,0.00,Wunderground v.1.15,2013-02-07 05:29:00,
2013-02-07 00:34:00,24.0,18.4,30.35,West,278,0.0,0.0,79,0.00,,,0.00,Wunderground v.1.15,2013-02-07 05:34:00,
2013-02-07 00:40:00,23.6,18.6,30.36,West,278,0.0,0.0,81,0.00,,,0.00,Wunderground v.1.15,2013-02-07 05:40:00,
2013-02-07 00:45:00,23.6,18.6,30.36,West,279,0.0,0.0,81,0.00,,,0.00,Wunderground v.1.15,2013-02-07 05:45:00,
2013-02-07 00:51:00,23.5,18.5,30.36,West,278,0.0,0.0,81,0.00,,,0.00,Wunderground v.1.15,2013-02-07 05:51:00,
2013-02-07 00:57:00,23.2,18.2,30.36,West,278,0.0,0.0,81,0.00,,,0.00,Wunderground v.1.15,2013-02-07 05:57:00,
2013-02-07 01:02:00,22.9,18.2,30.36,West,279,0.0,0.0,82,0.00,,,0.00,Wunderground v.1.15,2013-02-07 06:02:00,
2013-02-07 01:08:00,23.2,18.5,30.36,ENE,66,0.0,2.0,82,0.00,,,0.00,Wunderground v.1.15,2013-02-07 06:08:00,
2013-02-07 01:14:00,23.2,18.5,30.36,ENE,67,0.0,0.0,82,0.00,,,0.00,Wunderground v.1.15,2013-02-07 06:14:00,
2013-02-07 01:19:00,23.1,18.4,30.37,ENE,67,0.0,0.0,82,0.00,,,0.00,Wunderground v.1.15,2013-02-07 06:19:00,
2013-02-07 01:24:00,23.0,18.6,30.37,ENE,67,0.0,0.0,83,0.00,,,0.00,Wunderground v.1.15,2013-02-07 06:24:00,
2013-02-07 01:31:00,22.9,18.8,30.37,ENE,67,0.0,0.0,84,0.00,,,0.00,Wunderground v.1.15,2013-02-07 06:31:00,
2013-02-07 01:36:00,22.7,18.6,30.37,ENE,66,0.0,0.0,84,0.00,,,0.00,Wunderground v.1.15,2013-02-07 06:36:00,
2013-02-07 01:42:00,22.3,18.2,30.38,ENE,66,0.0,0.0,84,0.00,,,0.00,Wunderground v.1.15,2013-02-07 06:42:00,
2013-02-07 01:48:00,21.9,18.1,30.38,ENE,67,0.0,0.0,85,0.00,,,0.00,Wunderground v.1.15,2013-02-07 06:48:00,
2013-02-07 01:54:00,21.9,18.4,30.38,ENE,66,0.0,0.0,86,0.00,,,0.00,Wunderground v.1.15,2013-02-07 06:54:00,
2013-02-07 02:01:00,22.4,18.8,30.39,ENE,67,0.0,0.0,86,0.00,,,0.00,Wunderground v.1.15,2013-02-07 07:01:00,
2013-02-07 02:06:00,22.7,19.1,30.39,ENE,67,0.0,0.0,86,0.00,,,0.00,Wunderground v.1.15,2013-02-07 07:06:00,
2013-02-07 02:11:00,22.7,18.6,30.40,ENE,66,0.0,0.0,84,0.00,,,0.00,Wunderground v.1.15,2013-02-07 07:11:00,
2013-02-07 02:17:00,22.4,18.3,30.39,ENE,66,0.0,0.0,84,0.00,,,0.00,Wunderground v.1.15,2013-02-07 07:17:00,
2013-02-07 02:23:00,22.0,17.9,30.40,ENE,66,0.0,0.0,84,0.00,,,0.00,Wunderground v.1.15,2013-02-07 07:23:00,
2013-02-07 02:29:00,21.7,17.9,30.40,ENE,67,0.0,0.0,85,0.00,,,0.00,Wunderground v.1.15,2013-02-07 07:29:00,
2013-02-07 02:34:00,21.5,18.0,30.40,ENE,66,0.0,0.0,86,0.00,,,0.00,Wunderground v.1.15,2013-02-07 07:34:00,
2013-02-07 02:39:00,21.4,17.9,30.40,ENE,67,0.0,0.0,86,0.00,,,0.00,Wunderground v.1.15,2013-02-07 07:39:00,
2013-02-07 02:45:00,21.5,18.2,30.41,ENE,66,0.0,0.0,87,0.00,,,0.00,Wunderground v.1.15,2013-02-07 07:45:00,
2013-02-07 02:51:00,22.2,18.9,30.41,ENE,66,0.0,0.0,87,0.00,,,0.00,Wunderground v.1.15,2013-02-07 07:51:00,
2013-02-07 02:57:00,22.8,19.0,30.41,ENE,67,0.0,0.0,85,0.00,,,0.00,Wunderground v.1.15,2013-02-07 07:57:00,
2013-02-07 03:02:00,23.1,19.0,30.41,ENE,67,0.0,0.0,84,0.00,,,0.00,Wunderground v.1.15,2013-02-07 08:02:00,
2013-02-07 03:08:00,23.1,19.0,30.41,ENE,65,0.0,0.0,84,0.00,,,0.00,Wunderground v.1.15,2013-02-07 08:08:00,
2013-02-07 03:14:00,22.8,18.4,30.40,ENE,66,0.0,0.0,83,0.00,,,0.00,Wunderground v.1.15,2013-02-07 08:14:00,
2013-02-07 03:20:00,22.5,18.4,30.40,ENE,68,0.0,0.0,84,0.00,,,0.00,Wunderground v.1.15,2013-02-07 08:20:00,
2013-02-07 03:26:00,22.0,17.9,30.41,ENE,68,0.0,0.0,84,0.00,,,0.00,Wunderground v.1.15,2013-02-07 08:26:00,
2013-02-07 03:32:00,21.6,17.5,30.41,ENE,68,0.0,0.0,84,0.00,,,0.00,Wunderground v.1.15,2013-02-07 08:32:00,
2013-02-07 03:37:00,21.6,18.1,30.41,ENE,68,0.0,0.0,86,0.00,,,0.00,Wunderground v.1.15,2013-02-07 08:37:00,
2013-02-07 03:43:00,21.6,18.1,30.41,ENE,68,0.0,0.0,86,0.00,,,0.00,Wunderground v.1.15,2013-02-07 08:43:00,
2013-02-07 03:49:00,21.4,17.9,30.42,ENE,68,0.0,0.0,86,0.00,,,0.00,Wunderground v.1.15,2013-02-07 08:49:00,
2013-02-07 03:55:00,21.3,18.0,30.41,ENE,68,0.0,0.0,87,0.00,,,0.00,Wunderground v.1.15,2013-02-07 08:55:00,
2013-02-07 04:01:00,21.4,18.1,30.41,ENE,68,0.0,0.0,87,0.00,,,0.00,Wunderground v.1.15,2013-02-07 09:01:00,
2013-02-07 04:06:00,21.3,18.0,30.41,ENE,68,0.0,0.0,87,0.00,,,0.00,Wunderground v.1.15,2013-02-07 09:06:00,
2013-02-07 04:12:00,21.3,18.3,30.41,ENE,68,0.0,0.0,88,0.00,,,0.00,Wunderground v.1.15,2013-02-07 09:12:00,
2013-02-07 04:18:00,21.5,18.5,30.41,ENE,68,0.0,0.0,88,0.00,,,0.00,Wunderground v.1.15,2013-02-07 09:18:00,
2013-02-07 04:23:00,21.5,18.5,30.41,ENE,68,0.0,0.0,88,0.00,,,0.00,Wunderground v.1.15,2013-02-07 09:23:00,
2013-02-07 04:28:00,21.7,18.7,30.40,ENE,68,0.0,0.0,88,0.00,,,0.00,Wunderground v.1.15,2013-02-07 09:28:00,
2013-02-07 04:34:00,22.0,19.0,30.41,ENE,68,0.0,0.0,88,0.00,,,0.00,Wunderground v.1.15,2013-02-07 09:34:00,
2013-02-07 04:39:00,22.2,18.9,30.40,ENE,68,0.0,0.0,87,0.00,,,0.00,Wunderground v.1.15,2013-02-07 09:39:00,
2013-02-07 04:44:00,22.2,18.9,30.41,ENE,70,0.0,0.0,87,0.00,,,0.00,Wunderground v.1.15,2013-02-07 09:44:00,
2013-02-07 04:50:00,22.3,19.0,30.41,ENE,70,0.0,0.0,87,0.00,,,0.00,Wunderground v.1.15,2013-02-07 09:50:00,
2013-02-07 04:56:00,22.3,19.0,30.41,ENE,70,0.0,0.0,87,0.00,,,0.00,Wunderground v.1.15,2013-02-07 09:56:00,
2013-02-07 05:02:00,22.3,19.0,30.41,ENE,70,0.0,0.0,87,0.00,,,0.00,Wunderground v.1.15,2013-02-07 10:02:00,
2013-02-07 05:08:00,22.3,19.3,30.41,ENE,70,0.0,0.0,88,0.00,,,0.00,Wunderground v.1.15,2013-02-07 10:08:00,
2013-02-07 05:14:00,22.3,19.3,30.41,ENE,70,0.0,0.0,88,0.00,,,0.00,Wunderground v.1.15,2013-02-07 10:14:00,
2013-02-07 05:20:00,22.3,19.3,30.42,ENE,70,0.0,0.0,88,0.00,,,0.00,Wunderground v.1.15,2013-02-07 10:20:00,
2013-02-07 05:25:00,22.3,19.3,30.42,ENE,70,0.0,0.0,88,0.00,,,0.00,Wunderground v.1.15,2013-02-07 10:25:00,
2013-02-07 05:30:00,22.3,19.6,30.42,ENE,70,0.0,0.0,89,0.00,,,0.00,Wunderground v.1.15,2013-02-07 10:30:00,
2013-02-07 05:36:00,22.3,19.6,30.42,ENE,70,0.0,0.0,89,0.00,,,0.00,Wunderground v.1.15,2013-02-07 10:36:00,
2013-02-07 05:41:00,22.3,19.6,30.43,ENE,70,0.0,0.0,89,0.00,,,0.00,Wunderground v.1.15,2013-02-07 10:41:00,
2013-02-07 05:46:00,22.2,19.5,30.43,ENE,70,0.0,0.0,89,0.00,,,0.00,Wunderground v.1.15,2013-02-07 10:46:00,
2013-02-07 05:52:00,22.1,19.4,30.43,ENE,70,0.0,0.0,89,0.00,,,0.00,Wunderground v.1.15,2013-02-07 10:52:00,
2013-02-07 05:57:00,22.1,19.4,30.43,ENE,70,0.0,0.0,89,0.00,,,0.00,Wunderground v.1.15,2013-02-07 10:57:00,
2013-02-07 06:02:00,22.2,19.7,30.43,ENE,70,0.0,0.0,90,0.00,,,0.00,Wunderground v.1.15,2013-02-07 11:02:00,
2013-02-07 06:08:00,22.3,19.8,30.43,ENE,70,0.0,0.0,90,0.00,,,0.00,Wunderground v.1.15,2013-02-07 11:08:00,
2013-02-07 06:14:00,22.5,19.7,30.43,ENE,70,0.0,0.0,89,0.00,,,0.00,Wunderground v.1.15,2013-02-07 11:14:00,
2013-02-07 06:20:00,22.7,19.9,30.43,ENE,70,0.0,0.0,89,0.00,,,0.00,Wunderground v.1.15,2013-02-07 11:20:00,
2013-02-07 06:25:00,22.9,19.9,30.44,ENE,70,0.0,0.0,88,0.00,,,0.00,Wunderground v.1.15,2013-02-07 11:25:00,
2013-02-07 06:30:00,23.0,20.0,30.44,ENE,70,0.0,0.0,88,0.00,,,0.00,Wunderground v.1.15,2013-02-07 11:30:00,
2013-02-07 06:35:00,23.1,20.1,30.45,ENE,70,0.0,0.0,88,0.00,,,0.00,Wunderground v.1.15,2013-02-07 11:35:00,
2013-02-07 06:41:00,23.2,20.2,30.45,East,90,0.0,0.0,88,0.00,,,0.00,Wunderground v.1.15,2013-02-07 11:41:00,
2013-02-07 06:47:00,23.2,20.2,30.46,South,188,0.0,0.0,88,0.00,,,0.00,Wunderground v.1.15,2013-02-07 11:47:00,
2013-02-07 06:52:00,23.3,20.0,30.46,South,188,0.0,0.0,87,0.00,,,0.00,Wunderground v.1.15,2013-02-07 11:52:00,
2013-02-07 06:58:00,23.4,20.1,30.46,South,188,0.0,0.0,87,0.00,,,0.00,Wunderground v.1.15,2013-02-07 11:58:00,
2013-02-07 07:04:00,23.6,20.3,30.46,South,188,0.0,0.0,87,0.00,,,0.00,Wunderground v.1.15,2013-02-07 12:04:00,
2013-02-07 07:09:00,23.7,20.1,30.46,South,188,0.0,0.0,86,0.00,,,0.00,Wunderground v.1.15,2013-02-07 12:09:00,
2013-02-07 07:16:00,23.8,20.2,30.46,South,188,0.0,0.0,86,0.00,,,0.00,Wunderground v.1.15,2013-02-07 12:16:00,
2013-02-07 07:21:00,23.8,20.2,30.47,South,188,0.0,0.0,86,0.00,,,0.00,Wunderground v.1.15,2013-02-07 12:21:00,
2013-02-07 07:27:00,23.9,20.3,30.47,South,173,0.0,0.0,86,0.00,,,0.00,Wunderground v.1.15,2013-02-07 12:27:00,
2013-02-07 07:33:00,24.0,20.4,30.47,South,173,0.0,0.0,86,0.00,,,0.00,Wunderground v.1.15,2013-02-07 12:33:00,
2013-02-07 07:38:00,24.1,20.5,30.46,South,173,0.0,0.0,86,0.00,,,0.00,Wunderground v.1.15,2013-02-07 12:38:00,
2013-02-07 07:44:00,24.3,20.7,30.46,South,173,0.0,0.0,86,0.00,,,0.00,Wunderground v.1.15,2013-02-07 12:44:00,
2013-02-07 07:50:00,24.6,20.7,30.47,South,173,0.0,0.0,85,0.00,,,0.00,Wunderground v.1.15,2013-02-07 12:50:00,
2013-02-07 07:55:00,24.8,20.9,30.46,South,173,0.0,0.0,85,0.00,,,0.00,Wunderground v.1.15,2013-02-07 12:55:00,
2013-02-07 08:01:00,25.0,21.1,30.47,South,173,0.0,0.0,85,0.00,,,0.00,Wunderground v.1.15,2013-02-07 13:01:00,
2013-02-07 08:06:00,25.1,21.5,30.47,South,173,0.0,0.0,86,0.00,,,0.00,Wunderground v.1.15,2013-02-07 13:06:00,
2013-02-07 08:11:00,25.2,21.3,30.47,ESE,117,0.0,0.0,85,0.00,,,0.00,Wunderground v.1.15,2013-02-07 13:11:00,
2013-02-07 08:17:00,25.2,21.3,30.47,ESE,110,0.0,0.0,85,0.00,,,0.00,Wunderground v.1.15,2013-02-07 13:17:00,
2013-02-07 08:22:00,25.4,21.5,30.47,East,101,0.0,1.0,85,0.00,,,0.00,Wunderground v.1.15,2013-02-07 13:22:00,
2013-02-07 08:27:00,25.5,21.9,30.47,ESE,104,1.0,2.0,86,0.00,,,0.00,Wunderground v.1.15,2013-02-07 13:27:00,
2013-02-07 08:32:00,25.7,22.1,30.47,ESE,105,1.0,1.0,86,0.00,,,0.00,Wunderground v.1.15,2013-02-07 13:32:00,
2013-02-07 08:38:00,25.9,22.3,30.47,East,100,1.0,2.0,86,0.00,,,0.00,Wunderground v.1.15,2013-02-07 13:38:00,
2013-02-07 08:43:00,26.1,22.5,30.47,ESE,112,1.0,2.0,86,0.00,,,0.00,Wunderground v.1.15,2013-02-07 13:43:00,
2013-02-07 08:49:00,26.3,22.7,30.47,ENE,77,2.0,2.0,86,0.00,,,0.00,Wunderground v.1.15,2013-02-07 13:49:00,
2013-02-07 08:55:00,26.5,22.6,30.47,East,97,2.0,3.0,85,0.00,,,0.00,Wunderground v.1.15,2013-02-07 13:55:00,
2013-02-07 09:01:00,26.9,22.7,30.47,East,85,1.0,1.0,84,0.00,,,0.00,Wunderground v.1.15,2013-02-07 14:01:00,
2013-02-07 09:06:00,27.2,21.8,30.47,East,100,1.0,4.0,80,0.00,,,0.00,Wunderground v.1.15,2013-02-07 14:06:00,
2013-02-07 09:12:00,27.6,20.7,30.47,East,98,3.0,3.0,75,0.00,,,0.00,Wunderground v.1.15,2013-02-07 14:12:00,
2013-02-07 09:18:00,28.0,20.1,30.47,ENE,77,3.0,3.0,72,0.00,,,0.00,Wunderground v.1.15,2013-02-07 14:18:00,
2013-02-07 09:23:00,28.2,20.0,30.47,SE,125,2.0,3.0,71,0.00,,,0.00,Wunderground v.1.15,2013-02-07 14:23:00,
2013-02-07 09:29:00,28.3,18.7,30.47,NE,52,3.0,6.0,67,0.00,,,0.00,Wunderground v.1.15,2013-02-07 14:29:00,
2013-02-07 09:34:00,28.5,18.9,30.47,ESE,103,3.0,4.0,67,0.00,,,0.00,Wunderground v.1.15,2013-02-07 14:34:00,
2013-02-07 09:39:00,28.6,18.7,30.48,East,85,3.0,6.0,66,0.00,,,0.00,Wunderground v.1.15,2013-02-07 14:39:00,
2013-02-07 09:45:00,28.7,18.4,30.48,ENE,74,4.0,4.0,65,0.00,,,0.00,Wunderground v.1.15,2013-02-07 14:45:00,
2013-02-07 09:51:00,28.8,18.1,30.48,ENE,69,4.0,4.0,64,0.00,,,0.00,Wunderground v.1.15,2013-02-07 14:51:00,
2013-02-07 09:56:00,28.9,18.2,30.48,ENE,65,3.0,6.0,64,0.00,,,0.00,Wunderground v.1.15,2013-02-07 14:56:00,
2013-02-07 10:02:00,29.0,18.3,30.47,ENE,68,4.0,4.0,64,0.00,,,0.00,Wunderground v.1.15,2013-02-07 15:02:00,
2013-02-07 10:07:00,29.1,17.7,30.47,ESE,103,4.0,7.0,62,0.00,,,0.00,Wunderground v.1.15,2013-02-07 15:07:00,
2013-02-07 10:12:00,29.2,17.8,30.47,ENE,60,4.0,4.0,62,0.00,,,0.00,Wunderground v.1.15,2013-02-07 15:12:00,
2013-02-07 10:18:00,29.4,17.6,30.47,East,101,4.0,8.0,61,0.00,,,0.00,Wunderground v.1.15,2013-02-07 15:18:00,
2013-02-07 10:24:00,29.5,17.7,30.47,East,101,4.0,5.0,61,0.00,,,0.00,Wunderground v.1.15,2013-02-07 15:24:00,
2013-02-07 10:31:00,29.6,18.2,30.47,ENE,75,4.0,4.0,62,0.00,,,0.00,Wunderground v.1.15,2013-02-07 15:31:00,
2013-02-07 10:36:00,29.7,18.6,30.47,ENE,65,4.0,6.0,63,0.00,,,0.00,Wunderground v.1.15,2013-02-07 15:36:00,
2013-02-07 10:42:00,30.0,18.5,30.47,East,83,4.0,5.0,62,0.00,,,0.00,Wunderground v.1.15,2013-02-07 15:42:00,
2013-02-07 10:48:00,30.0,18.2,30.47,East,96,4.0,8.0,61,0.00,,,0.00,Wunderground v.1.15,2013-02-07 15:48:00,
2013-02-07 10:53:00,30.1,18.3,30.47,ENE,58,5.0,5.0,61,0.00,,,0.00,Wunderground v.1.15,2013-02-07 15:53:00,
2013-02-07 10:59:00,30.4,18.5,30.47,ENE,72,4.0,6.0,61,0.00,,,0.00,Wunderground v.1.15,2013-02-07 15:59:00,
2013-02-07 11:04:00,30.5,18.6,30.47,NE,45,3.0,4.0,61,0.00,,,0.00,Wunderground v.1.15,2013-02-07 16:04:00,
2013-02-07 11:09:00,30.7,18.1,30.47,NE,47,3.0,5.0,59,0.00,,,0.00,Wunderground v.1.15,2013-02-07 16:09:00,
2013-02-07 11:15:00,31.0,18.3,30.47,East,94,3.0,4.0,59,0.00,,,0.00,Wunderground v.1.15,2013-02-07 16:15:00,
2013-02-07 11:21:00,31.0,17.5,30.47,East,97,4.0,4.0,57,0.00,,,0.00,Wunderground v.1.15,2013-02-07 16:21:00,
2013-02-07 11:26:00,31.1,17.2,30.46,East,93,5.0,6.0,56,0.00,,,0.00,Wunderground v.1.15,2013-02-07 16:26:00,
2013-02-07 11:32:00,31.3,18.2,30.45,East,96,5.0,5.0,58,0.00,,,0.00,Wunderground v.1.15,2013-02-07 16:32:00,
2013-02-07 11:37:00,31.5,18.8,30.45,East,84,4.0,5.0,59,0.00,,,0.00,Wunderground v.1.15,2013-02-07 16:37:00,
2013-02-07 11:43:00,31.7,18.2,30.45,ENE,71,4.0,4.0,57,0.00,,,0.00,Wunderground v.1.15,2013-02-07 16:43:00,
2013-02-07 11:48:00,31.7,17.8,30.45,East,93,4.0,4.0,56,0.00,,,0.00,Wunderground v.1.15,2013-02-07 16:48:00,
2013-02-07 11:53:00,32.0,18.5,30.44,East,96,3.0,4.0,57,0.00,,,0.00,Wunderground v.1.15,2013-02-07 16:53:00,
2013-02-07 11:59:00,32.3,18.3,30.44,East,94,3.0,6.0,56,0.00,,,0.00,Wunderground v.1.15,2013-02-07 16:59:00,
2013-02-07 12:04:00,32.2,17.4,30.44,East,79,4.0,8.0,54,0.00,,,0.00,Wunderground v.1.15,2013-02-07 17:04:00,
2013-02-07 12:10:00,32.3,17.5,30.44,East,85,4.0,8.0,54,0.00,,,0.00,Wunderground v.1.15,2013-02-07 17:10:00,
2013-02-07 12:15:00,32.4,17.6,30.44,East,79,4.0,7.0,54,0.00,,,0.00,Wunderground v.1.15,2013-02-07 17:15:00,
2013-02-07 12:21:00,32.3,17.9,30.44,East,91,5.0,5.0,55,0.00,,,0.00,Wunderground v.1.15,2013-02-07 17:21:00,
2013-02-07 12:26:00,32.5,18.9,30.43,ESE,105,4.0,7.0,57,0.00,,,0.00,Wunderground v.1.15,2013-02-07 17:26:00,
2013-02-07 12:32:00,32.8,18.4,30.43,East,97,3.0,6.0,55,0.00,,,0.00,Wunderground v.1.15,2013-02-07 17:32:00,
2013-02-07 12:37:00,32.8,18.8,30.43,East,90,4.0,6.0,56,0.00,,,0.00,Wunderground v.1.15,2013-02-07 17:37:00,
2013-02-07 12:42:00,33.1,19.5,30.42,East,91,4.0,4.0,57,0.00,,,0.00,Wunderground v.1.15,2013-02-07 17:42:00,
2013-02-07 12:48:00,33.4,18.9,30.42,East,98,3.0,4.0,55,0.00,,,0.00,Wunderground v.1.15,2013-02-07 17:48:00,
2013-02-07 12:53:00,33.4,18.1,30.42,East,89,3.0,5.0,53,0.00,,,0.00,Wunderground v.1.15,2013-02-07 17:53:00,
2013-02-07 12:59:00,33.4,18.1,30.42,East,81,4.0,6.0,53,0.00,,,0.00,Wunderground v.1.15,2013-02-07 17:59:00,
2013-02-07 13:04:00,33.4,17.6,30.41,ENE,75,4.0,5.0,52,0.00,,,0.00,Wunderground v.1.15,2013-02-07 18:04:00,
2013-02-07 13:10:00,33.4,18.1,30.41,ENE,74,4.0,8.0,53,0.00,,,0.00,Wunderground v.1.15,2013-02-07 18:10:00,
2013-02-07 13:15:00,33.4,17.2,30.40,ESE,111,5.0,7.0,51,0.00,,,0.00,Wunderground v.1.15,2013-02-07 18:15:00,
2013-02-07 13:21:00,33.6,17.4,30.40,SSE,162,4.0,4.0,51,0.00,,,0.00,Wunderground v.1.15,2013-02-07 18:21:00,
2013-02-07 13:26:00,33.7,16.1,30.41,ESE,103,4.0,7.0,48,0.00,,,0.00,Wunderground v.1.15,2013-02-07 18:26:00,
2013-02-07 13:32:00,33.7,16.1,30.40,ESE,107,4.0,4.0,48,0.00,,,0.00,Wunderground v.1.15,2013-02-07 18:32:00,
2013-02-07 13:38:00,33.7,14.6,30.40,East,91,5.0,6.0,45,0.00,,,0.00,Wunderground v.1.15,2013-02-07 18:38:00,
2013-02-07 13:44:00,33.7,14.6,30.40,East,98,6.0,7.0,45,0.00,,,0.00,Wunderground v.1.15,2013-02-07 18:44:00,
2013-02-07 13:50:00,33.7,14.1,30.39,East,93,6.0,8.0,44,0.00,,,0.00,Wunderground v.1.15,2013-02-07 18:50:00,
2013-02-07 13:55:00,33.8,14.2,30.39,East,96,5.0,6.0,44,0.00,,,0.00,Wunderground v.1.15,2013-02-07 18:55:00,
2013-02-07 14:01:00,33.9,15.3,30.39,ENE,67,4.0,6.0,46,0.00,,,0.00,Wunderground v.1.15,2013-02-07 19:01:00,
2013-02-07 14:06:00,34.0,14.9,30.39,ESE,117,4.0,6.0,45,0.00,,,0.00,Wunderground v.1.15,2013-02-07 19:06:00,
2013-02-07 14:11:00,33.9,14.8,30.39,East,79,4.0,4.0,45,0.00,,,0.00,Wunderground v.1.15,2013-02-07 19:11:00,
2013-02-07 14:17:00,34.0,14.9,30.39,ESE,108,5.0,9.0,45,0.00,,,0.00,Wunderground v.1.15,2013-02-07 19:17:00,
2013-02-07 14:22:00,33.9,14.8,30.39,East,89,5.0,5.0,45,0.00,,,0.00,Wunderground v.1.15,2013-02-07 19:22:00,
2013-02-07 14:28:00,34.0,14.9,30.38,ENE,78,5.0,6.0,45,0.00,,,0.00,Wunderground v.1.15,2013-02-07 19:28:00,
2013-02-07 14:34:00,34.2,15.0,30.38,ESE,109,5.0,6.0,45,0.00,,,0.00,Wunderground v.1.15,2013-02-07 19:34:00,
2013-02-07 14:39:00,34.2,15.0,30.38,East,84,4.0,6.0,45,0.00,,,0.00,Wunderground v.1.15,2013-02-07 19:39:00,
2013-02-07 14:45:00,34.1,14.9,30.38,ENE,75,5.0,8.0,45,0.00,,,0.00,Wunderground v.1.15,2013-02-07 19:45:00,
2013-02-07 14:51:00,34.1,14.9,30.37,East,86,5.0,6.0,45,0.00,,,0.00,Wunderground v.1.15,2013-02-07 19:51:00,
2013-02-07 14:57:00,34.1,14.9,30.38,East,93,5.0,8.0,45,0.00,,,0.00,Wunderground v.1.15,2013-02-07 19:57:00,
2013-02-07 15:02:00,34.1,15.5,30.37,East,93,5.0,8.0,46,0.00,,,0.00,Wunderground v.1.15,2013-02-07 20:02:00,
2013-02-07 15:08:00,34.3,15.6,30.38,ESE,103,5.0,8.0,46,0.00,,,0.00,Wunderground v.1.15,2013-02-07 20:08:00,
2013-02-07 15:14:00,34.2,15.5,30.37,East,91,6.0,8.0,46,0.00,,,0.00,Wunderground v.1.15,2013-02-07 20:14:00,
2013-02-07 15:20:00,34.2,16.0,30.37,ENE,71,5.0,8.0,47,0.00,,,0.00,Wunderground v.1.15,2013-02-07 20:20:00,
2013-02-07 15:26:00,34.3,16.6,30.37,East,94,5.0,7.0,48,0.00,,,0.00,Wunderground v.1.15,2013-02-07 20:26:00,
2013-02-07 15:32:00,34.3,17.1,30.37,NNE,29,4.0,5.0,49,0.00,,,0.00,Wunderground v.1.15,2013-02-07 20:32:00,
2013-02-07 15:38:00,34.4,17.7,30.36,ESE,103,3.0,5.0,50,0.00,,,0.00,Wunderground v.1.15,2013-02-07 20:38:00,
2013-02-07 15:44:00,34.3,17.6,30.36,SE,127,3.0,3.0,50,0.00,,,0.00,Wunderground v.1.15,2013-02-07 20:44:00,
2013-02-07 15:50:00,34.3,17.6,30.36,ESE,113,3.0,7.0,50,0.00,,,0.00,Wunderground v.1.15,2013-02-07 20:50:00,
2013-02-07 15:55:00,34.3,18.0,30.36,East,84,4.0,4.0,51,0.00,,,0.00,Wunderground v.1.15,2013-02-07 20:55:00,
2013-02-07 16:01:00,34.3,18.0,30.36,East,93,4.0,4.0,51,0.00,,,0.00,Wunderground v.1.15,2013-02-07 21:01:00,
2013-02-07 16:06:00,34.3,18.5,30.36,East,89,4.0,4.0,52,0.00,,,0.00,Wunderground v.1.15,2013-02-07 21:06:00,
2013-02-07 16:11:00,34.4,18.1,30.36,East,94,3.0,3.0,51,0.00,,,0.00,Wunderground v.1.15,2013-02-07 21:11:00,
2013-02-07 16:17:00,34.3,18.5,30.35,SE,133,3.0,5.0,52,0.00,,,0.00,Wunderground v.1.15,2013-02-07 21:17:00,
2013-02-07 16:22:00,34.3,18.9,30.35,East,95,3.0,4.0,53,0.00,,,0.00,Wunderground v.1.15,2013-02-07 21:22:00,
2013-02-07 16:27:00,34.3,18.5,30.35,ENE,68,3.0,6.0,52,0.00,,,0.00,Wunderground v.1.15,2013-02-07 21:27:00,
2013-02-07 16:33:00,34.2,18.4,30.35,East,97,3.0,6.0,52,0.00,,,0.00,Wunderground v.1.15,2013-02-07 21:33:00,
2013-02-07 16:39:00,34.2,18.8,30.35,ENE,71,3.0,6.0,53,0.00,,,0.00,Wunderground v.1.15,2013-02-07 21:39:00,
2013-02-07 16:44:00,34.1,18.3,30.35,NE,56,3.0,4.0,52,0.00,,,0.00,Wunderground v.1.15,2013-02-07 21:44:00,
2013-02-07 16:50:00,34.0,19.1,30.35,East,101,3.0,4.0,54,0.00,,,0.00,Wunderground v.1.15,2013-02-07 21:50:00,
2013-02-07 16:55:00,33.9,19.0,30.35,ESE,107,2.0,4.0,54,0.00,,,0.00,Wunderground v.1.15,2013-02-07 21:55:00,
2013-02-07 17:01:00,33.9,19.0,30.34,ENE,63,2.0,2.0,54,0.00,,,0.00,Wunderground v.1.15,2013-02-07 22:01:00,
2013-02-07 17:06:00,33.9,18.6,30.34,ESE,105,3.0,5.0,53,0.00,,,0.00,Wunderground v.1.15,2013-02-07 22:06:00,
2013-02-07 17:12:00,33.7,18.4,30.34,East,98,2.0,2.0,53,0.00,,,0.00,Wunderground v.1.15,2013-02-07 22:12:00,
2013-02-07 17:18:00,33.7,18.4,30.35,East,100,2.0,4.0,53,0.00,,,0.00,Wunderground v.1.15,2013-02-07 22:18:00,
2013-02-07 17:24:00,33.6,19.1,30.34,ENE,78,2.0,2.0,55,0.00,,,0.00,Wunderground v.1.15,2013-02-07 22:24:00,
2013-02-07 17:31:00,33.5,19.5,30.35,ESE,110,1.0,1.0,56,0.00,,,0.00,Wunderground v.1.15,2013-02-07 22:31:00,
2013-02-07 17:36:00,33.4,19.4,30.35,ESE,110,1.0,2.0,56,0.00,,,0.00,Wunderground v.1.15,2013-02-07 22:36:00,
2013-02-07 17:41:00,33.3,19.7,30.35,East,82,1.0,1.0,57,0.00,,,0.00,Wunderground v.1.15,2013-02-07 22:41:00,
2013-02-07 17:47:00,33.3,20.1,30.35,ENE,71,1.0,2.0,58,0.00,,,0.00,Wunderground v.1.15,2013-02-07 22:47:00,
2013-02-07 17:53:00,33.3,20.1,30.35,ESE,103,1.0,2.0,58,0.00,,,0.00,Wunderground v.1.15,2013-02-07 22:53:00,
2013-02-07 17:59:00,33.2,20.4,30.35,East,96,2.0,4.0,59,0.00,,,0.00,Wunderground v.1.15,2013-02-07 22:59:00,
2013-02-07 18:04:00,33.1,20.7,30.35,East,95,2.0,2.0,60,0.00,,,0.00,Wunderground v.1.15,2013-02-07 23:04:00,
2013-02-07 18:10:00,33.1,20.3,30.35,NE,56,1.0,2.0,59,0.00,,,0.00,Wunderground v.1.15,2013-02-07 23:10:00,
2013-02-07 18:15:00,33.1,20.3,30.36,ENE,61,1.0,3.0,59,0.00,,,0.00,Wunderground v.1.15,2013-02-07 23:15:00,
2013-02-07 18:21:00,33.1,20.7,30.36,ENE,78,1.0,2.0,60,0.00,,,0.00,Wunderground v.1.15,2013-02-07 23:21:00,
2013-02-07 18:26:00,33.1,20.7,30.36,ENE,76,1.0,2.0,60,0.00,,,0.00,Wunderground v.1.15,2013-02-07 23:26:00,
2013-02-07 18:32:00,33.0,21.0,30.36,ESE,105,1.0,1.0,61,0.00,,,0.00,Wunderground v.1.15,2013-02-07 23:32:00,
2013-02-07 18:38:00,32.9,20.9,30.36,East,88,1.0,2.0,61,0.00,,,0.00,Wunderground v.1.15,2013-02-07 23:38:00,
2013-02-07 18:44:00,32.8,21.2,30.36,ESE,104,2.0,2.0,62,0.00,,,0.00,Wunderground v.1.15,2013-02-07 23:44:00,
2013-02-07 18:50:00,32.8,20.8,30.36,ENE,76,1.0,2.0,61,0.00,,,0.00,Wunderground v.1.15,2013-02-07 23:50:00,
2013-02-07 18:55:00,32.8,20.8,30.36,ENE,77,1.0,2.0,61,0.00,,,0.00,Wunderground v.1.15,2013-02-07 23:55:00,
2013-02-07 19:01:00,32.7,20.3,30.36,ENE,72,2.0,2.0,60,0.00,,,0.00,Wunderground v.1.15,2013-02-08 00:01:00,
2013-02-07 19:06:00,32.7,20.3,30.36,East,82,3.0,5.0,60,0.00,,,0.00,Wunderground v.1.15,2013-02-08 00:06:00,
2013-02-07 19:11:00,32.7,20.3,30.35,East,87,3.0,3.0,60,0.00,,,0.00,Wunderground v.1.15,2013-02-08 00:11:00,
2013-02-07 19:17:00,32.6,20.2,30.35,ENE,62,3.0,5.0,60,0.00,,,0.00,Wunderground v.1.15,2013-02-08 00:17:00,
2013-02-07 19:23:00,32.6,20.2,30.35,East,84,3.0,3.0,60,0.00,,,0.00,Wunderground v.1.15,2013-02-08 00:23:00,
2013-02-07 19:28:00,32.5,20.5,30.35,East,87,2.0,3.0,61,0.00,,,0.00,Wunderground v.1.15,2013-02-08 00:28:00,
2013-02-07 19:34:00,32.5,20.5,30.35,ENE,71,2.0,3.0,61,0.00,,,0.00,Wunderground v.1.15,2013-02-08 00:34:00,
2013-02-07 19:40:00,32.4,20.8,30.35,East,96,2.0,3.0,62,0.00,,,0.00,Wunderground v.1.15,2013-02-08 00:40:00,
2013-02-07 19:45:00,32.4,20.8,30.35,ESE,110,2.0,3.0,62,0.00,,,0.00,Wunderground v.1.15,2013-02-08 00:45:00,
2013-02-07 19:51:00,32.4,20.8,30.35,East,84,2.0,2.0,62,0.00,,,0.00,Wunderground v.1.15,2013-02-08 00:51:00,
2013-02-07 19:56:00,32.3,21.1,30.35,East,91,1.0,3.0,63,0.00,,,0.00,Wunderground v.1.15,2013-02-08 00:56:00,
2013-02-07 20:02:00,32.3,21.1,30.35,ESE,114,2.0,2.0,63,0.00,,,0.00,Wunderground v.1.15,2013-02-08 01:02:00,
2013-02-07 20:07:00,32.3,21.5,30.35,East,97,1.0,3.0,64,0.00,,,0.00,Wunderground v.1.15,2013-02-08 01:07:00,
2013-02-07 20:13:00,32.2,21.7,30.34,ESE,105,1.0,3.0,65,0.00,,,0.00,Wunderground v.1.15,2013-02-08 01:13:00,
2013-02-07 20:19:00,32.3,22.2,30.34,East,100,2.0,7.0,66,0.00,,,0.00,Wunderground v.1.15,2013-02-08 01:19:00,
2013-02-07 20:24:00,32.3,22.6,30.35,ESE,103,3.0,3.0,67,0.00,,,0.00,Wunderground v.1.15,2013-02-08 01:24:00,
2013-02-07 20:32:00,32.2,23.8,30.35,East,98,3.0,7.0,71,0.00,,,0.00,Wunderground v.1.15,2013-02-08 01:32:00,
2013-02-07 20:37:00,32.2,24.5,30.34,East,84,4.0,7.0,73,0.00,,,0.00,Wunderground v.1.15,2013-02-08 01:37:00,
2013-02-07 20:43:00,32.1,24.7,30.34,East,101,4.0,6.0,74,0.00,,,0.00,Wunderground v.1.15,2013-02-08 01:43:00,
2013-02-07 20:49:00,32.1,24.4,30.35,East,91,5.0,12.0,73,0.00,,,0.00,Wunderground v.1.15,2013-02-08 01:49:00,
2013-02-07 20:54:00,32.0,24.3,30.35,East,87,6.0,7.0,73,0.00,,,0.00,Wunderground v.1.15,2013-02-08 01:54:00,
2013-02-07 21:01:00,31.9,24.2,30.35,SE,139,5.0,5.0,73,0.00,,,0.00,Wunderground v.1.15,2013-02-08 02:01:00,
2013-02-07 21:07:00,31.8,24.1,30.35,East,79,5.0,7.0,73,0.00,,,0.00,Wunderground v.1.15,2013-02-08 02:07:00,
2013-02-07 21:12:00,31.8,24.1,30.35,East,92,5.0,5.0,73,0.00,,,0.00,Wunderground v.1.15,2013-02-08 02:12:00,
2013-02-07 21:18:00,31.7,24.4,30.35,East,84,3.0,6.0,74,0.00,,,0.00,Wunderground v.1.15,2013-02-08 02:18:00,
2013-02-07 21:23:00,31.6,24.6,30.34,East,80,3.0,4.0,75,0.00,,,0.00,Wunderground v.1.15,2013-02-08 02:23:00,
2013-02-07 21:29:00,31.5,24.2,30.34,ESE,103,3.0,4.0,74,0.00,,,0.00,Wunderground v.1.15,2013-02-08 02:29:00,
2013-02-07 21:35:00,31.4,24.1,30.33,East,93,3.0,8.0,74,0.00,,,0.00,Wunderground v.1.15,2013-02-08 02:35:00,
2013-02-07 21:41:00,31.2,23.9,30.33,East,86,3.0,3.0,74,0.00,,,0.00,Wunderground v.1.15,2013-02-08 02:41:00,
2013-02-07 21:47:00,31.1,23.5,30.32,East,100,3.0,5.0,73,0.00,,,0.00,Wunderground v.1.15,2013-02-08 02:47:00,
2013-02-07 21:52:00,31.0,23.4,30.32,East,82,4.0,8.0,73,0.00,,,0.00,Wunderground v.1.15,2013-02-08 02:52:00,
2013-02-07 21:57:00,31.0,23.4,30.32,East,100,3.0,8.0,73,0.00,,,0.00,Wunderground v.1.15,2013-02-08 02:57:00,
2013-02-07 22:03:00,30.9,23.6,30.32,East,79,2.0,3.0,74,0.00,,,0.00,Wunderground v.1.15,2013-02-08 03:03:00,
2013-02-07 22:09:00,30.9,23.6,30.31,ENE,74,2.0,5.0,74,0.00,,,0.00,Wunderground v.1.15,2013-02-08 03:09:00,
2013-02-07 22:15:00,30.8,23.5,30.31,ENE,67,3.0,6.0,74,0.00,,,0.00,Wunderground v.1.15,2013-02-08 03:15:00,
2013-02-07 22:21:00,30.7,23.4,30.30,East,80,3.0,3.0,74,0.00,,,0.00,Wunderground v.1.15,2013-02-08 03:21:00,
2013-02-07 22:26:00,30.6,23.3,30.30,ENE,68,3.0,3.0,74,0.00,,,0.00,Wunderground v.1.15,2013-02-08 03:26:00,
2013-02-07 22:32:00,30.6,23.0,30.29,East,85,3.0,3.0,73,0.00,,,0.00,Wunderground v.1.15,2013-02-08 03:32:00,
2013-02-07 22:37:00,30.6,22.6,30.29,East,86,3.0,3.0,72,0.00,,,0.00,Wunderground v.1.15,2013-02-08 03:37:00,
2013-02-07 22:42:00,30.6,23.0,30.29,East,86,2.0,2.0,73,0.00,,,0.00,Wunderground v.1.15,2013-02-08 03:42:00,
2013-02-07 22:49:00,30.5,22.9,30.29,ENE,72,2.0,2.0,73,0.00,,,0.00,Wunderground v.1.15,2013-02-08 03:49:00,
2013-02-07 22:54:00,30.5,22.9,30.29,ENE,74,2.0,3.0,73,0.00,,,0.00,Wunderground v.1.15,2013-02-08 03:54:00,
2013-02-07 22:59:00,30.5,22.9,30.28,East,85,2.0,3.0,73,0.00,,,0.00,Wunderground v.1.15,2013-02-08 03:59:00,
2013-02-07 23:05:00,30.6,23.0,30.28,East,93,2.0,3.0,73,0.00,,,0.00,Wunderground v.1.15,2013-02-08 04:05:00,
2013-02-07 23:11:00,30.6,22.6,30.27,East,98,2.0,4.0,72,0.00,,,0.00,Wunderground v.1.15,2013-02-08 04:11:00,
2013-02-07 23:17:00,30.7,22.7,30.27,ESE,109,2.0,4.0,72,0.00,,,0.00,Wunderground v.1.15,2013-02-08 04:17:00,
2013-02-07 23:22:00,30.8,22.8,30.27,East,91,2.0,3.0,72,0.00,,,0.00,Wunderground v.1.15,2013-02-08 04:22:00,
2013-02-07 23:28:00,30.8,22.8,30.26,ENE,72,2.0,3.0,72,0.00,,,0.00,Wunderground v.1.15,2013-02-08 04:28:00,
2013-02-07 23:34:00,30.8,22.8,30.26,East,89,1.0,3.0,72,0.00,,,0.00,Wunderground v.1.15,2013-02-08 04:34:00,
2013-02-07 23:39:00,30.9,23.3,30.26,East,80,1.0,3.0,73,0.00,,,0.00,Wunderground v.1.15,2013-02-08 04:39:00,
2013-02-07 23:45:00,30.9,23.3,30.26,East,93,1.0,2.0,73,0.00,,,0.00,Wunderground v.1.15,2013-02-08 04:45:00,
2013-02-07 23:51:00,30.9,22.9,30.26,East,84,1.0,1.0,72,0.00,,,0.00,Wunderground v.1.15,2013-02-08 04:51:00,
2013-02-07 23:57:00,30.9,23.3,30.26,East,100,1.0,1.0,73,0.00,,,0.00,Wunderground v.1.15,2013-02-08 04:57:00,